Terminal Aerodrome Forecast
Issued by NWS Quad Cities IA IL

Home | Current Version | Previous Version | Text Only | Print | Product List | Glossary On
Versions: 1 2 3 4 5 6 7 8 9 10 11 12 13 14 15 16
000
FTUS43 KDVN 291700
TAFMLI
TAF
KMLI 291734Z 2918/3018 31011G19KT P6SM BKN035
     FM292200 28005KT P6SM SCT040
     FM300100 26003KT P6SM SKC
     FM300800 23003KT P6SM BKN090 BKN250
     FM301500 17004KT P6SM BKN050 OVC080=

USA.gov is the U.S. government's official web portal to all federal, state and local government web resources and services.